Clackamas, OR (97015)

12:30 PM PST on February 10, 2016 (GMT -0800)
Southern Ridge Neighborhood | | Change Station
CLOSE
Current Station
Personal Weather Station
Location: Happy Valley, OR
Elevation: 640 ft
Nearby Weather Stations

Elev 640 ft 45.43 °N, 122.51 °W | Updated 6 seconds ago

Overcast
Overcast
55.6 °F
Feels Like 55.6 °F
N
2.5
Wind Variable Wind from South
Gusts 4.9 mph

Today
High -- | Low -- °F
--% Chance of Precip.
Yesterday
High -- | Low -- °F
Precip. -- in
Pressure 30.30 in
Visibility 10.0 miles
Clouds Mostly Cloudy 3900 ft
Overcast 10000 ft
Dew Point 40 °F
Humidity 56%
Rainfall 0.00 in
Snow Depth Not available.
7:19 AM 5:29 PM
Waxing Crescent, 7% visible
METAR KTTD 101953Z 08007KT 10SM BKN039 OVC100 10/04 A3030 RMK AO2 SLP259 T01000039
Pressure 30.30 in
Visibility 10.0 miles
Clouds Mostly Cloudy 3900 ft
Overcast 10000 ft
Dew Point 40 °F
Humidity 56%
Rainfall 0.00 in
Snow Depth Not available.
7:19 AM 5:29 PM
Waxing Crescent, 7% visible
METAR KTTD 101953Z 08007KT 10SM BKN039 OVC100 10/04 A3030 RMK AO2 SLP259 T01000039

10-Day Weather Forecast

Almanac

Astronomy

Feb. 10, 2016 Rise Set
Actual Time
Civil Twilight
Nautical Twilight
Astronomical Twilight
Moon
Length of Visible Light
Length of Day
Tomorrow will be .
, % of the Moon is Illuminated

Today's Extremes

State Highs State Lows

Community

WunderPhotos

Upload Photos

1,891,942 photos uploaded!

WunderBlog® & News

Nearby

Air Quality

  Air Quality AQ Index Pollutant
Not available.

Snow Depth

Station Depth Elevation

Earthquake Activity

City Distance Mag. Time & Date
Minimum magnitude displayed is 2.5.

Coastal Water Temperatures

Place Temperature

Stations

Nearby Weather Stations

Station Location Temp. Windchill Dew Point Humidity Wind Precip. Elev Updated Type
                   

Watches & Warnings

There are currently no watches in effect.